Time;durP1;ratioP1;P1;durP2;ratioP2;P2;SDS_P1;SDS_P2;PMS_P1;PMS_P2;Temp;Humidity;BMP_temperature;BMP_pressure;BME280_temperature;BME280_humidity;BME280_pressure;Samples;Min_cycle;Max_cycle;Signal;HPM_P1;HPM_P2
2023/03/19 05:01:47;;;;;;;;;;;9.50;99.90;;;;;;6221628;22;20016;-75
2023/03/19 05:04:12;;;;;;;;;;;9.50;99.90;;;;;;6246525;23;19915;-75
2023/03/19 05:06:38;;;;;;;13.57;8.87;;;9.50;99.90;;;;;;6246178;23;19912;-76
2023/03/19 05:09:05;;;;;;;15.20;8.95;;;9.40;99.90;;;;;;6246212;23;20024;-76
2023/03/19 05:11:31;;;;;;;16.48;10.07;;;9.40;99.90;;;;;;6245806;22;20070;-75
2023/03/19 05:13:57;;;;;;;17.80;10.15;;;9.40;99.90;;;;;;6245715;23;20008;-76
2023/03/19 05:16:22;;;;;;;15.30;9.98;;;9.40;99.90;;;;;;6245802;23;20020;-75
2023/03/19 05:18:48;;;;;;;15.55;9.82;;;9.40;99.90;;;;;;6248027;23;20020;-76
2023/03/19 05:21:14;;;;;;;16.67;9.50;;;9.30;99.90;;;;;;6247759;22;20015;-75
2023/03/19 05:23:40;;;;;;;13.95;9.13;;;9.30;99.90;;;;;;6245514;23;20044;-76
2023/03/19 05:26:07;;;;;;;15.43;9.13;;;9.20;99.90;;;;;;6247470;22;20062;-75
2023/03/19 05:28:33;;;;;;;17.42;10.25;;;9.20;99.90;;;;;;6246593;23;20012;-77
2023/03/19 05:30:59;;;;;;;17.60;9.63;;;9.10;99.90;;;;;;6245637;22;20008;-75
2023/03/19 05:33:25;;;;;;;14.57;9.82;;;9.10;99.90;;;;;;6247660;22;20299;-76
2023/03/19 05:35:51;;;;;;;17.40;10.57;;;9.10;99.90;;;;;;6245486;23;20023;-76
2023/03/19 05:38:17;;;;;;;17.90;10.13;;;9.00;99.90;;;;;;6245323;23;20327;-76
2023/03/19 05:40:43;;;;;;;18.73;11.55;;;9.00;99.90;;;;;;6245245;22;20049;-76
2023/03/19 05:43:10;;;;;;;15.45;9.73;;;9.00;99.90;;;;;;6247162;22;20012;-75
2023/03/19 05:45:36;;;;;;;15.10;9.80;;;8.90;99.90;;;;;;6245338;23;20063;-74
2023/03/19 05:48:03;;;;;;;16.58;10.30;;;8.90;99.90;;;;;;6270801;22;20452;-76
2023/03/19 05:50:30;;;;;;;19.55;10.60;;;8.90;99.90;;;;;;6247119;22;20054;-75
2023/03/19 05:52:56;;;;;;;15.90;9.73;;;8.80;99.90;;;;;;6219859;23;20016;-75
2023/03/19 05:55:23;;;;;;;18.15;11.30;;;8.80;99.90;;;;;;6245168;23;20016;-77
2023/03/19 05:57:48;;;;;;;18.90;10.98;;;8.80;99.90;;;;;;6245555;23;20016;-75
2023/03/19 06:00:14;;;;;;;19.55;11.65;;;8.80;99.90;;;;;;6245043;22;20039;-77
2023/03/19 06:02:41;;;;;;;19.23;11.77;;;8.80;99.90;;;;;;6247491;23;20052;-77
2023/03/19 06:05:08;;;;;;;19.90;11.00;;;8.70;99.90;;;;;;6245246;23;20091;-76
2023/03/19 06:07:33;;;;;;;18.90;11.50;;;8.70;99.90;;;;;;6245202;23;20492;-77
2023/03/19 06:09:59;;;;;;;21.58;12.77;;;8.70;99.90;;;;;;6219931;23;20065;-75
2023/03/19 06:12:25;;;;;;;21.00;11.80;;;8.70;99.90;;;;;;6246889;22;20043;-76
2023/03/19 06:14:50;;;;;;;20.52;12.23;;;8.70;99.90;;;;;;6246864;23;20012;-76
2023/03/19 06:17:17;;;;;;;17.40;11.25;;;8.70;99.90;;;;;;6245455;23;20481;-75
2023/03/19 06:19:42;;;;;;;21.60;11.82;;;8.70;99.90;;;;;;6246861;22;20008;-76
2023/03/19 06:22:08;;;;;;;24.40;12.70;;;8.70;99.90;;;;;;6244984;22;20108;-75
2023/03/19 06:24:34;;;;;;;19.48;11.57;;;8.70;99.90;;;;;;6244994;23;20031;-76
2023/03/19 06:27:00;;;;;;;19.75;12.20;;;8.70;99.90;;;;;;6244950;23;20016;-75
2023/03/19 06:29:26;;;;;;;21.42;11.38;;;8.70;99.90;;;;;;6245017;23;20019;-75
2023/03/19 06:31:51;;;;;;;25.20;13.07;;;8.70;99.90;;;;;;6246126;22;20019;-76
2023/03/19 06:34:17;;;;;;;22.35;12.98;;;8.70;99.90;;;;;;6245024;23;20016;-76
2023/03/19 06:36:43;;;;;;;21.48;12.38;;;8.70;99.90;;;;;;6245211;23;20305;-76
2023/03/19 06:39:09;;;;;;;21.58;12.20;;;8.70;99.90;;;;;;6244848;23;20020;-77
2023/03/19 06:41:35;;;;;;;21.20;12.23;;;8.70;99.90;;;;;;6244703;22;20023;-75
2023/03/19 06:44:02;;;;;;;21.50;11.95;;;8.70;99.90;;;;;;6245021;23;20039;-77
2023/03/19 06:46:27;;;;;;;22.52;12.50;;;8.70;99.90;;;;;;6219464;23;20473;-76
2023/03/19 06:48:53;;;;;;;22.05;13.15;;;8.70;99.90;;;;;;6246782;22;20016;-76
2023/03/19 06:51:19;;;;;;;20.40;11.75;;;8.70;99.90;;;;;;6245101;22;20016;-77
2023/03/19 06:53:45;;;;;;;18.65;11.02;;;8.80;99.90;;;;;;6244529;23;20019;-76
2023/03/19 06:56:11;;;;;;;48.55;13.05;;;8.80;99.90;;;;;;6246377;23;20464;-75
2023/03/19 06:58:36;;;;;;;19.60;12.18;;;8.80;99.90;;;;;;6244688;23;20035;-76
2023/03/19 07:01:03;;;;;;;24.33;13.07;;;8.80;99.90;;;;;;6244223;22;20013;-75
2023/03/19 07:03:28;;;;;;;19.02;11.75;;;8.80;99.90;;;;;;6246040;23;20008;-76
2023/03/19 07:05:54;;;;;;;16.98;11.07;;;8.90;99.90;;;;;;6244613;23;20091;-74
2023/03/19 07:08:20;;;;;;;19.42;11.35;;;8.90;99.90;;;;;;6244440;23;20047;-76
2023/03/19 07:10:46;;;;;;;20.83;12.32;;;9.00;99.90;;;;;;6244138;22;20066;-75
2023/03/19 07:13:11;;;;;;;17.92;11.38;;;9.00;99.90;;;;;;6246314;23;20013;-76
2023/03/19 07:15:37;;;;;;;21.40;12.60;;;9.00;99.90;;;;;;6219188;23;20345;-75
2023/03/19 07:18:03;;;;;;;22.23;12.85;;;9.10;99.90;;;;;;6244341;23;20016;-76
2023/03/19 07:20:29;;;;;;;20.98;12.85;;;9.10;99.90;;;;;;6246197;22;20008;-74
2023/03/19 07:22:54;;;;;;;23.10;13.25;;;9.20;99.90;;;;;;6244216;23;20023;-74
2023/03/19 07:25:20;;;;;;;26.67;13.77;;;9.30;99.90;;;;;;6244438;23;20012;-76
2023/03/19 07:27:47;;;;;;;24.63;12.57;;;9.30;99.90;;;;;;6244792;23;20020;-78
2023/03/19 07:30:13;;;;;;;22.90;12.93;;;9.40;99.90;;;;;;6244398;22;20019;-76
2023/03/19 07:32:39;;;;;;;22.13;13.40;;;9.50;99.90;;;;;;6244318;23;20091;-76
2023/03/19 07:35:06;;;;;;;22.67;13.65;;;9.60;99.90;;;;;;6246128;22;20043;-76
2023/03/19 07:37:32;;;;;;;24.85;13.23;;;9.70;99.90;;;;;;6244512;23;20319;-77
2023/03/19 07:39:58;;;;;;;20.63;12.50;;;9.80;99.90;;;;;;6244411;23;20315;-77
2023/03/19 07:42:24;;;;;;;21.80;12.90;;;9.80;99.90;;;;;;6244393;22;20074;-76
2023/03/19 07:44:50;;;;;;;18.50;11.68;;;9.90;99.90;;;;;;6244158;23;20059;-76
2023/03/19 07:47:16;;;;;;;22.08;12.65;;;10.00;99.90;;;;;;6244276;23;20035;-76
2023/03/19 07:49:41;;;;;;;20.17;12.40;;;10.10;99.90;;;;;;6244134;23;20070;-75
2023/03/19 07:52:07;;;;;;;19.85;12.18;;;10.20;99.90;;;;;;6245922;22;20082;-76
2023/03/19 07:54:33;;;;;;;20.35;12.48;;;10.30;99.90;;;;;;6244148;23;20023;-75
2023/03/19 07:56:59;;;;;;;22.52;11.45;;;10.30;99.90;;;;;;6245999;22;20019;-76
2023/03/19 07:59:25;;;;;;;18.60;12.02;;;10.40;99.90;;;;;;6245946;22;20008;-76
2023/03/19 08:01:50;;;;;;;19.40;12.30;;;10.40;99.90;;;;;;6244492;22;20008;-79
2023/03/19 08:04:16;;;;;;;21.10;11.10;;;10.40;99.90;;;;;;6243993;23;20020;-76
2023/03/19 08:06:42;;;;;;;20.13;11.98;;;10.50;99.90;;;;;;6245948;22;20044;-76
2023/03/19 08:09:08;;;;;;;17.08;9.73;;;10.50;99.90;;;;;;6243961;23;20040;-75
2023/03/19 08:11:34;;;;;;;18.77;10.95;;;10.50;99.90;;;;;;6245642;22;20019;-75
2023/03/19 08:14:00;;;;;;;19.48;11.20;;;10.40;99.90;;;;;;6246022;23;20008;-77
2023/03/19 08:16:26;;;;;;;19.15;12.13;;;10.40;99.90;;;;;;6245927;22;20351;-77
2023/03/19 08:18:51;;;;;;;20.02;12.20;;;10.40;99.90;;;;;;6244046;23;20039;-80
2023/03/19 08:21:17;;;;;;;16.30;11.40;;;10.40;99.90;;;;;;6244218;22;20047;-78
2023/03/19 08:23:42;;;;;;;21.65;12.18;;;10.50;99.90;;;;;;6246021;23;20059;-78
2023/03/19 08:26:08;;;;;;;19.90;11.88;;;10.40;99.90;;;;;;6247766;23;20026;-77
2023/03/19 08:28:34;;;;;;;20.77;12.65;;;10.50;99.90;;;;;;6245457;23;20008;-73
2023/03/19 08:31:08;;;;;;;21.20;12.25;;;10.50;99.90;;;;;;6249596;22;20008;-74
2023/03/19 08:33:34;;;;;;;22.45;12.95;;;10.60;99.90;;;;;;6248943;22;20020;-75
2023/03/19 08:36:12;;;;;;;22.45;13.60;;;10.60;99.90;;;;;;6246200;22;20004;-78
2023/03/19 08:38:38;;;;;;;21.70;13.13;;;10.60;99.90;;;;;;6244306;23;20012;-75
2023/03/19 08:41:05;;;;;;;20.58;12.43;;;10.70;99.90;;;;;;6245592;22;20012;-76
2023/03/19 08:43:32;;;;;;;20.52;12.23;;;10.80;99.90;;;;;;6245846;22;20102;-77
2023/03/19 08:45:59;;;;;;;20.77;12.13;;;10.80;99.90;;;;;;6246843;22;20008;-77
2023/03/19 08:48:25;;;;;;;17.52;9.90;;;10.90;99.90;;;;;;6246535;23;20044;-78
2023/03/19 08:50:56;;;;;;;18.52;10.75;;;11.00;99.90;;;;;;6246663;22;20008;-76
2023/03/19 08:53:22;;;;;;;18.50;11.23;;;11.10;99.90;;;;;;6219742;23;20048;-78
2023/03/19 08:55:56;;;;;;;19.30;11.60;;;11.00;99.90;;;;;;6244767;23;20414;-78
2023/03/19 08:58:23;;;;;;;20.60;12.48;;;11.00;99.90;;;;;;6245289;23;20318;-78
2023/03/19 09:00:49;;;;;;;18.15;12.05;;;10.90;99.90;;;;;;6244930;22;20020;-76
2023/03/19 09:03:16;;;;;;;20.08;11.45;;;10.80;99.90;;;;;;6244652;23;20025;-76
2023/03/19 09:05:42;;;;;;;19.77;12.25;;;10.80;99.90;;;;;;6244662;23;20046;-76
2023/03/19 09:08:08;;;;;;;18.73;12.27;;;10.70;99.90;;;;;;6245960;22;20640;-77
2023/03/19 09:10:33;;;;;;;17.63;10.85;;;10.70;99.90;;;;;;6245741;22;20036;-76
2023/03/19 09:12:59;;;;;;;20.33;12.23;;;10.70;99.90;;;;;;6244471;23;20039;-79
2023/03/19 09:15:25;;;;;;;22.63;13.00;;;10.60;99.90;;;;;;6244848;23;20043;-76
2023/03/19 09:17:51;;;;;;;21.10;12.90;;;10.50;99.90;;;;;;6219343;23;20041;-79
2023/03/19 09:20:17;;;;;;;20.67;12.13;;;10.50;99.90;;;;;;6244436;22;20019;-78
2023/03/19 09:22:43;;;;;;;20.58;12.10;;;10.50;99.90;;;;;;6244372;23;20012;-79
2023/03/19 09:25:09;;;;;;;20.75;12.85;;;10.50;99.90;;;;;;6244248;23;20016;-77
2023/03/19 09:27:35;;;;;;;22.50;13.02;;;10.40;99.90;;;;;;6246224;23;20307;-78
2023/03/19 09:30:01;;;;;;;23.05;13.50;;;10.50;99.90;;;;;;6246397;23;20014;-75
2023/03/19 09:32:26;;;;;;;24.38;13.05;;;10.50;99.90;;;;;;6245525;22;20062;-78
2023/03/19 09:34:52;;;;;;;22.45;14.73;;;10.40;99.90;;;;;;6245770;23;20027;-77
2023/03/19 09:37:18;;;;;;;28.25;16.27;;;10.40;99.90;;;;;;6244278;23;20026;-75
2023/03/19 09:39:43;;;;;;;22.27;14.40;;;10.40;99.90;;;;;;6246181;23;20040;-77
2023/03/19 09:42:24;;;;;;;24.17;14.55;;;10.40;99.90;;;;;;6245620;22;20046;-79
2023/03/19 09:44:51;;;;;;;24.92;15.32;;;10.40;99.90;;;;;;6244236;23;20024;-76
2023/03/19 09:47:33;;;;;;;23.20;14.25;;;10.40;99.90;;;;;;6246521;22;20044;-77
2023/03/19 09:50:05;;;;;;;25.05;15.15;;;10.40;99.90;;;;;;6248246;22;20057;-74
2023/03/19 09:52:42;;;;;;;24.38;15.50;;;10.40;99.90;;;;;;6220995;23;20434;-76
2023/03/19 09:55:30;;;;;;;24.77;15.30;;;10.30;99.90;;;;;;6244927;23;20091;-77
2023/03/19 09:57:57;;;;;;;29.80;14.90;;;10.30;99.90;;;;;;6244414;23;20039;-75
2023/03/19 10:00:35;;;;;;;22.17;13.90;;;10.30;99.90;;;;;;6246305;22;20350;-78
2023/03/19 10:03:11;;;;;;;24.42;14.52;;;10.30;99.90;;;;;;6246237;23;20008;-76
2023/03/19 10:05:57;;;;;;;23.83;13.52;;;10.30;99.90;;;;;;6220815;23;20012;-79
2023/03/19 10:08:50;;;;;;;24.77;14.20;;;10.40;99.90;;;;;;6245736;23;20012;-73
2023/03/19 10:11:41;;;;;;;28.27;16.27;;;10.40;99.90;;;;;;6219742;23;20012;-78
2023/03/19 10:14:43;;;;;;;26.08;16.00;;;10.30;99.90;;;;;;6246458;22;20048;-77
2023/03/19 10:17:23;;;;;;;26.52;14.63;;;10.30;99.90;;;;;;6219604;23;20070;-77
2023/03/19 10:19:57;;;;;;;24.65;15.75;;;10.30;99.90;;;;;;6220062;23;20012;-77
2023/03/19 10:27:32;;;;;;;;;;;;;;;;;;;;;
2023/03/19 10:36:00;;;;;;;;;;;;;;;;;;;;;
2023/03/19 10:39:49;;;;;;;25.20;15.18;;;10.30;99.90;;;;;;6245178;23;19912;-76
2023/03/19 10:42:40;;;;;;;26.58;14.85;;;10.30;99.90;;;;;;6189448;23;20027;-77
2023/03/19 10:48:36;;;;;;;;;;;;;;;;;;;;;
2023/03/19 10:51:32;;;;;;;28.92;16.80;;;10.50;99.90;;;;;;6246904;22;20468;-78
2023/03/19 10:54:02;;;;;;;26.30;16.48;;;10.50;99.90;;;;;;6245431;23;20020;-78
2023/03/19 10:56:34;;;;;;;30.65;18.77;;;10.60;99.90;;;;;;6247257;22;20319;-78
2023/03/19 10:59:40;;;;;;;;;;;;;;;;;;;;;
2023/03/19 11:02:29;;;;;;;24.85;15.55;;;10.70;99.90;;;;;;6244997;22;20073;-79
2023/03/19 11:05:45;;;;;;;25.52;15.25;;;10.80;99.90;;;;;;6220463;23;20020;-76
2023/03/19 11:09:18;;;;;;;25.50;15.30;;;10.80;99.90;;;;;;6219047;23;20012;-77
2023/03/19 11:12:47;;;;;;;26.48;15.15;;;10.70;99.90;;;;;;6210398;22;20119;-76
2023/03/19 11:15:22;;;;;;;23.65;14.68;;;10.70;99.90;;;;;;6152521;23;20018;-79
2023/03/19 11:18:06;;;;;;;28.38;16.30;;;10.60;99.90;;;;;;6153356;23;20049;-77
2023/03/19 11:20:48;;;;;;;30.17;16.67;;;10.60;99.90;;;;;;6153114;23;20452;-77
2023/03/19 11:23:50;;;;;;;29.65;16.77;;;10.60;99.90;;;;;;6152876;23;20366;-76
2023/03/19 11:26:23;;;;;;;29.02;15.10;;;10.60;99.90;;;;;;6153192;23;20029;-76
2023/03/19 11:29:20;;;;;;;24.17;15.35;;;10.60;99.90;;;;;;6153109;23;20117;-77
2023/03/19 11:32:17;;;;;;;25.98;15.90;;;10.60;99.90;;;;;;6125580;23;20391;-77
2023/03/19 11:35:09;;;;;;;30.92;15.52;;;10.60;99.90;;;;;;6152081;23;20018;-79
2023/03/19 11:38:17;;;;;;;29.20;16.00;;;10.60;99.90;;;;;;6128422;23;20072;-78
2023/03/19 11:41:36;;;;;;;29.80;16.90;;;10.60;99.90;;;;;;6157620;23;20017;-78
2023/03/19 11:44:54;;;;;;;;;;;;;;;;;;;;;
2023/03/19 11:48:46;;;;;;;;;;;;;;;;;;;;;
2023/03/19 11:55:35;;;;;;;44.45;21.00;;;10.30;99.90;;;;;;6094323;23;20029;-78
2023/03/19 11:58:42;;;;;;;48.05;21.40;;;10.30;99.90;;;;;;6069124;23;20025;-79
2023/03/19 12:01:40;;;;;;;;;;;;;;;;;;;;;
2023/03/19 12:05:08;;;;;;;50.20;23.73;;;10.30;99.90;;;;;;6012305;23;19953;-78
2023/03/19 12:08:08;;;;;;;44.05;20.90;;;10.30;99.90;;;;;;6096179;23;20573;-78
2023/03/19 12:15:42;;;;;;;46.22;21.55;;;10.40;99.90;;;;;;6098071;23;20026;-77
2023/03/19 12:18:25;;;;;;;48.47;22.63;;;10.40;99.90;;;;;;6046033;23;20022;-79
2023/03/19 12:21:36;;;;;;;47.25;22.13;;;10.40;99.90;;;;;;6069768;23;20022;-79
2023/03/19 12:24:03;;;;;;;51.85;22.67;;;10.40;99.90;;;;;;6098848;23;20077;-78
2023/03/19 12:27:21;;;;;;;49.05;21.52;;;10.50;99.90;;;;;;6129677;23;20013;-77
2023/03/19 12:30:03;;;;;;;46.25;22.33;;;10.40;99.90;;;;;;6122482;23;20016;-77
2023/03/19 12:32:49;;;;;;;44.83;20.88;;;10.50;99.90;;;;;;6235039;22;20016;-78
2023/03/19 12:35:20;;;;;;;47.97;22.55;;;10.50;99.90;;;;;;6245848;22;20095;-77
2023/03/19 12:38:24;;;;;;;49.65;22.67;;;10.50;99.90;;;;;;6243798;23;20093;-78
2023/03/19 12:41:19;;;;;;;49.70;22.73;;;10.60;99.90;;;;;;6240585;22;20020;-78
2023/03/19 12:44:22;;;;;;;44.33;20.65;;;10.60;99.90;;;;;;6243144;23;20012;-77
2023/03/19 12:47:22;;;;;;;48.80;22.33;;;10.60;99.90;;;;;;6219187;23;20469;-78
2023/03/19 12:49:58;;;;;;;43.10;21.58;;;10.70;99.90;;;;;;6243733;23;20018;-78
2023/03/19 12:52:34;;;;;;;44.53;22.20;;;10.70;99.90;;;;;;6243793;22;20015;-77
2023/03/19 12:55:18;;;;;;;40.40;20.00;;;10.70;99.90;;;;;;6245680;22;20014;-77
2023/03/19 12:57:52;;;;;;;45.97;22.58;;;10.80;99.90;;;;;;6245374;23;20046;-77
2023/03/19 13:00:29;;;;;;;46.03;21.00;;;10.80;99.90;;;;;;6245143;22;20299;-78
2023/03/19 13:02:55;;;;;;;48.20;22.83;;;10.80;99.90;;;;;;6218573;23;20070;-79
2023/03/19 13:05:42;;;;;;;45.03;20.15;;;10.80;99.90;;;;;;6243822;23;20016;-78
2023/03/19 13:08:48;;;;;;;39.30;18.55;;;10.80;99.90;;;;;;6245945;23;20013;-77
2023/03/19 13:11:37;;;;;;;43.17;19.92;;;10.70;99.90;;;;;;6245429;22;20012;-77
2023/03/19 13:14:46;;;;;;;47.50;20.58;;;10.60;99.90;;;;;;6246832;23;20434;-77
2023/03/19 13:17:37;;;;;;;48.42;18.98;;;10.60;99.90;;;;;;6189212;23;20021;-77
2023/03/19 13:20:45;;;;;;;46.55;21.70;;;10.60;99.90;;;;;;6164392;23;20028;-77
2023/03/19 13:23:15;;;;;;;50.15;21.23;;;10.60;99.90;;;;;;6189005;23;20020;-79
2023/03/19 13:25:47;;;;;;;50.78;22.75;;;10.50;99.90;;;;;;6164472;23;20013;-78
2023/03/19 13:28:25;;;;;;;65.30;27.73;;;10.50;99.90;;;;;;6164930;23;20012;-78
2023/03/19 13:31:01;;;;;;;45.65;19.05;;;10.50;99.90;;;;;;6164212;23;20012;-77
2023/03/19 13:33:28;;;;;;;46.38;19.90;;;10.50;99.90;;;;;;6165040;23;20028;-77
2023/03/19 13:35:55;;;;;;;39.30;17.50;;;10.40;99.90;;;;;;6164118;23;20024;-78
2023/03/19 13:38:24;;;;;;;41.92;17.35;;;10.50;99.90;;;;;;6163984;23;20118;-76
2023/03/19 13:40:51;;;;;;;45.70;18.20;;;10.50;99.90;;;;;;6193813;23;20016;-78
2023/03/19 13:43:28;;;;;;;42.13;17.70;;;10.50;99.90;;;;;;6220496;23;20446;-78
2023/03/19 13:46:12;;;;;;;43.78;17.27;;;10.50;99.90;;;;;;6220589;23;20012;-77
2023/03/19 13:48:48;;;;;;;45.60;18.13;;;10.50;99.90;;;;;;6245439;23;20012;-77
2023/03/19 13:51:17;;;;;;;41.80;16.55;;;10.50;99.90;;;;;;6223229;23;20012;-76
2023/03/19 13:53:52;;;;;;;35.83;14.70;;;10.40;99.90;;;;;;6229625;23;20016;-76
2023/03/19 13:56:18;;;;;;;36.03;15.90;;;10.40;99.90;;;;;;6225729;23;20023;-75
2023/03/19 13:59:12;;;;;;;36.78;14.88;;;10.40;99.90;;;;;;6222686;23;20012;-78
2023/03/19 14:02:21;;;;;;;35.80;15.30;;;10.40;99.90;;;;;;6218250;23;20012;-76
2023/03/19 14:05:12;;;;;;;33.45;14.70;;;10.40;99.90;;;;;;6220686;23;20388;-77
2023/03/19 14:07:49;;;;;;;33.80;14.80;;;10.40;99.90;;;;;;6246595;22;20012;-79
2023/03/19 14:10:47;;;;;;;33.47;14.63;;;10.40;99.90;;;;;;6245592;22;20096;-78
2023/03/19 14:13:26;;;;;;;31.40;14.48;;;10.40;99.90;;;;;;6245234;23;20070;-78
2023/03/19 14:15:53;;;;;;;30.60;14.52;;;10.40;99.90;;;;;;6219762;23;20091;-78
2023/03/19 14:18:26;;;;;;;39.38;17.73;;;10.40;99.90;;;;;;6244901;23;20060;-77
2023/03/19 14:20:57;;;;;;;32.60;16.05;;;10.40;99.90;;;;;;6219600;23;20020;-78
2023/03/19 14:23:26;;;;;;;36.05;15.98;;;10.50;99.90;;;;;;6244853;23;20081;-78
2023/03/19 14:26:28;;;;;;;39.33;16.85;;;10.40;99.90;;;;;;6245584;23;20436;-77
2023/03/19 14:29:04;;;;;;;41.97;17.67;;;10.50;99.90;;;;;;6220676;23;20065;-77
2023/03/19 14:31:46;;;;;;;;;;;;;;;;;;;;;
2023/03/19 14:34:42;;;;;;;37.08;15.60;;;10.40;99.90;;;;;;6247101;23;20020;-76
2023/03/19 14:37:29;;;;;;;34.78;15.02;;;10.40;99.90;;;;;;6220730;23;20020;-78
2023/03/19 14:40:07;;;;;;;36.78;16.58;;;10.30;99.90;;;;;;6220437;23;20016;-77
2023/03/19 14:43:10;;;;;;;41.30;16.00;;;10.40;99.90;;;;;;6246613;22;20004;-78
2023/03/19 14:45:44;;;;;;;38.10;16.88;;;10.40;99.90;;;;;;6243953;23;20103;-78
2023/03/19 14:48:25;;;;;;;32.25;15.25;;;10.40;99.90;;;;;;6247010;22;20016;-78
2023/03/19 14:51:20;;;;;;;35.13;15.82;;;10.50;99.90;;;;;;6219649;23;20106;-76
2023/03/19 14:53:54;;;;;;;34.35;15.20;;;10.50;99.90;;;;;;6244915;23;20034;-78
2023/03/19 14:56:25;;;;;;;34.03;15.07;;;10.50;99.90;;;;;;6245631;23;20016;-77
2023/03/19 14:58:56;;;;;;;36.38;16.08;;;10.50;99.90;;;;;;6245051;23;20019;-79
2023/03/19 15:01:26;;;;;;;34.05;15.30;;;10.50;99.90;;;;;;6219729;23;20019;-77
2023/03/19 15:04:11;;;;;;;35.42;16.27;;;10.40;99.90;;;;;;6219941;23;20016;-78
2023/03/19 15:06:43;;;;;;;38.35;17.08;;;10.40;99.90;;;;;;6219260;23;20087;-78
2023/03/19 15:09:36;;;;;;;39.80;15.52;;;10.40;99.90;;;;;;6219605;23;20019;-77
2023/03/19 15:12:17;;;;;;;43.05;17.35;;;10.40;99.90;;;;;;6213718;23;20012;-77
2023/03/19 15:14:53;;;;;;;41.70;16.23;;;10.40;99.90;;;;;;6219798;23;20012;-78
2023/03/19 15:17:27;;;;;;;39.33;16.58;;;10.40;99.90;;;;;;6220422;23;20075;-78
2023/03/19 15:19:57;;;;;;;39.20;16.48;;;10.40;99.90;;;;;;6220140;23;20062;-78
2023/03/19 15:22:32;;;;;;;38.72;16.15;;;10.40;99.90;;;;;;6219617;23;20073;-78
2023/03/19 15:25:24;;;;;;;;;;;10.50;99.90;;;;;;6244851;23;20020;-79
2023/03/19 15:28:09;;;;;;;38.80;15.60;;;10.50;99.90;;;;;;6213043;23;19919;-77
2023/03/19 15:30:35;;;;;;;40.10;16.30;;;10.50;99.90;;;;;;6246745;22;20114;-77
2023/03/19 15:33:01;;;;;;;39.53;15.80;;;10.50;99.90;;;;;;6219332;23;20012;-77
2023/03/19 15:35:34;;;;;;;40.80;16.23;;;10.50;99.90;;;;;;6219378;23;20016;-77
2023/03/19 15:38:05;;;;;;;45.97;16.98;;;10.50;99.90;;;;;;6219852;23;20070;-78
2023/03/19 15:40:32;;;;;;;61.47;21.73;;;10.50;99.90;;;;;;6245686;22;20023;-77
2023/03/19 15:43:01;;;;;;;50.22;19.42;;;10.50;99.90;;;;;;6219758;23;20012;-79
2023/03/19 15:45:29;;;;;;;45.60;18.27;;;10.50;99.90;;;;;;6220566;23;20019;-78
2023/03/19 15:48:10;;;;;;;47.17;19.27;;;10.50;99.90;;;;;;6219165;23;20012;-78
2023/03/19 15:50:41;;;;;;;54.65;21.02;;;10.50;99.90;;;;;;6219649;22;20023;-78
2023/03/19 15:53:23;;;;;;;54.90;21.25;;;10.40;99.90;;;;;;6220337;23;20295;-78
2023/03/19 15:55:51;;;;;;;58.13;20.08;;;10.30;99.90;;;;;;6219181;23;20081;-77
2023/03/19 15:58:24;;;;;;;63.80;21.02;;;10.30;99.90;;;;;;6219696;23;20016;-77
2023/03/19 16:00:54;;;;;;;57.67;20.75;;;10.30;99.90;;;;;;6246168;22;20446;-78
2023/03/19 16:03:26;;;;;;;61.53;23.42;;;10.30;99.90;;;;;;6220046;23;20019;-77
2023/03/19 16:06:04;;;;;;;68.78;24.33;;;10.30;99.90;;;;;;6219388;23;20016;-77
2023/03/19 16:08:31;;;;;;;64.10;24.00;;;10.40;99.90;;;;;;6219146;23;20444;-78
2023/03/19 16:11:29;;;;;;;64.55;24.27;;;10.30;99.90;;;;;;6245936;22;20095;-78
2023/03/19 16:13:59;;;;;;;65.30;25.20;;;10.30;99.90;;;;;;6230671;23;20020;-77
2023/03/19 16:16:28;;;;;;;63.45;24.35;;;10.30;99.90;;;;;;6219119;23;20023;-77
2023/03/19 16:18:55;;;;;;;71.22;28.42;;;10.40;99.90;;;;;;6244238;23;20027;-78
2023/03/19 16:21:39;;;;;;;77.22;31.83;;;10.40;99.90;;;;;;6218606;23;20023;-79
2023/03/19 16:24:14;;;;;;;64.10;25.80;;;10.40;99.90;;;;;;6246032;22;20361;-77
2023/03/19 16:26:42;;;;;;;68.03;25.35;;;10.40;99.90;;;;;;6219593;23;20013;-78
2023/03/19 16:29:35;;;;;;;70.63;26.85;;;10.40;99.90;;;;;;6219081;23;20013;-78
2023/03/19 16:32:07;;;;;;;63.65;26.63;;;10.40;99.90;;;;;;6219074;23;20047;-77
2023/03/19 16:34:32;;;;;;;69.60;26.42;;;10.40;99.90;;;;;;6219581;23;20094;-78
2023/03/19 16:37:00;;;;;;;70.75;27.00;;;10.40;99.90;;;;;;6219219;23;20476;-78
2023/03/19 16:39:47;;;;;;;73.63;28.63;;;10.40;99.90;;;;;;6219339;23;20016;-77
2023/03/19 16:42:38;;;;;;;74.65;27.30;;;10.40;99.90;;;;;;6219416;23;20012;-77
2023/03/19 16:45:19;;;;;;;73.78;29.50;;;10.30;99.90;;;;;;6205477;23;20077;-78
2023/03/19 16:47:49;;;;;;;82.97;31.02;;;10.40;99.90;;;;;;6247732;23;20433;-78
2023/03/19 16:50:17;;;;;;;69.28;27.92;;;10.30;99.90;;;;;;6221593;22;20039;-80
2023/03/19 16:52:45;;;;;;;72.68;30.42;;;10.30;99.90;;;;;;6221328;23;20111;-79
2023/03/19 16:55:20;;;;;;;66.03;26.15;;;10.20;99.90;;;;;;6221162;23;20032;-78
2023/03/19 16:57:57;;;;;;;78.63;27.67;;;10.20;99.90;;;;;;6222177;23;20051;-77
2023/03/19 17:00:23;;;;;;;78.32;29.40;;;10.10;99.90;;;;;;6220873;22;20095;-78
2023/03/19 17:02:52;;;;;;;70.13;26.23;;;10.10;99.90;;;;;;6221378;23;20020;-78
2023/03/19 17:05:18;;;;;;;78.18;27.58;;;10.10;99.90;;;;;;6221585;23;20012;-77
2023/03/19 17:07:44;;;;;;;71.32;24.70;;;10.00;99.90;;;;;;6221795;23;20097;-78
2023/03/19 17:10:15;;;;;;;78.63;27.35;;;9.90;99.90;;;;;;6220779;23;20012;-78
2023/03/19 17:12:47;;;;;;;76.90;24.07;;;9.80;99.90;;;;;;6222304;23;20351;-78
2023/03/19 17:15:34;;;;;;;85.47;25.17;;;9.80;99.90;;;;;;6220690;23;20016;-79
2023/03/19 17:18:03;;;;;;;75.15;24.40;;;9.70;99.90;;;;;;6221027;23;20023;-77
2023/03/19 17:20:52;;;;;;;82.47;24.92;;;9.70;99.90;;;;;;6220702;22;20073;-78
2023/03/19 17:23:18;;;;;;;78.25;25.80;;;9.70;99.90;;;;;;6220947;23;20442;-77
2023/03/19 17:25:44;;;;;;;68.07;23.30;;;9.70;99.90;;;;;;6220597;23;20114;-79
2023/03/19 17:28:11;;;;;;;71.97;22.90;;;9.60;99.90;;;;;;6220319;23;20012;-78
2023/03/19 17:37:28;;;;;;;64.63;22.90;;;9.50;99.90;;;;;;6184412;23;20021;-78
2023/03/19 17:46:22;;;;;;;;;;;;;;;;;;;;;
2023/03/19 17:49:58;;;;;;;;;;;;;;;;;;;;;
2023/03/19 17:56:27;;;;;;;;;;;;;;;;;;;;;
2023/03/19 18:06:55;;;;;;;;;;;;;;;;;;;;;
2023/03/19 18:17:22;;;;;;;28.83;12.30;;;9.30;99.90;;;;;;6196850;23;20056;-77
2023/03/19 18:20:38;;;;;;;29.10;13.50;;;9.30;99.90;;;;;;6087145;23;20342;-78
2023/03/19 18:23:22;;;;;;;;;;;;;;;;;;;;;
2023/03/19 18:26:12;;;;;;;31.20;12.95;;;9.20;99.90;;;;;;6158659;23;20076;-78
2023/03/19 18:29:01;;;;;;;26.52;12.13;;;9.20;99.90;;;;;;6185901;23;20013;-78
2023/03/19 18:35:06;;;;;;;23.63;10.65;;;9.10;99.90;;;;;;6041789;23;20025;-77
2023/03/19 18:38:00;;;;;;;24.42;11.35;;;9.10;99.90;;;;;;6042932;23;20100;-77
2023/03/19 18:40:50;;;;;;;25.17;11.07;;;9.00;99.90;;;;;;6018458;23;20187;-78
2023/03/19 18:43:53;;;;;;;23.33;11.20;;;9.00;99.90;;;;;;5977344;23;20015;-78
2023/03/19 18:46:55;;;;;;;25.23;11.50;;;9.00;99.90;;;;;;6041947;23;20041;-78
2023/03/19 18:50:21;;;;;;;24.88;11.10;;;8.90;99.90;;;;;;6042597;23;20038;-78
2023/03/19 18:54:31;;;;;;;;;;;;;;;;;;;;;
2023/03/19 18:57:56;;;;;;;;;;;;;;;;;;;;;
2023/03/19 19:00:32;;;;;;;21.88;9.80;;;8.90;99.90;;;;;;5981272;23;20020;-78
2023/03/19 19:03:00;;;;;;;21.35;9.75;;;8.80;99.90;;;;;;6028362;23;20011;-80
2023/03/19 19:05:28;;;;;;;21.17;9.25;;;8.80;99.90;;;;;;6156378;23;20071;-82
2023/03/19 19:07:55;;;;;;;20.08;9.00;;;8.80;99.90;;;;;;6185220;23;20021;-77
2023/03/19 19:10:22;;;;;;;18.00;9.38;;;8.80;99.90;;;;;;6159686;23;20017;-77
2023/03/19 19:12:50;;;;;;;16.17;8.35;;;8.70;99.90;;;;;;6160112;23;20085;-76
2023/03/19 19:15:21;;;;;;;17.30;9.13;;;8.70;99.90;;;;;;6159625;23;20521;-77
2023/03/19 19:17:47;;;;;;;19.63;8.95;;;8.70;99.90;;;;;;6159543;23;20079;-77
2023/03/19 19:20:27;;;;;;;21.05;10.80;;;8.70;99.90;;;;;;6159490;23;20383;-77
2023/03/19 19:22:54;;;;;;;17.92;10.18;;;8.70;99.90;;;;;;6160345;23;20317;-77
2023/03/19 19:25:24;;;;;;;14.45;7.80;;;8.70;99.90;;;;;;6185719;23;20019;-76
2023/03/19 19:28:16;;;;;;;17.02;9.15;;;8.60;99.90;;;;;;6159719;23;20048;-76
2023/03/19 19:30:43;;;;;;;16.02;8.48;;;8.60;99.90;;;;;;6152989;23;20013;-77
2023/03/19 19:33:21;;;;;;;13.57;7.90;;;8.70;99.90;;;;;;6186315;23;20013;-77
2023/03/19 19:35:47;;;;;;;14.68;8.35;;;8.70;99.90;;;;;;6159782;23;20017;-77
2023/03/19 19:38:13;;;;;;;12.55;8.10;;;8.70;99.90;;;;;;6184251;23;20013;-77
2023/03/19 19:40:42;;;;;;;13.73;8.10;;;8.70;99.90;;;;;;6185874;23;20005;-76